Time;durP1;ratioP1;P1;durP2;ratioP2;P2;SDS_P1;SDS_P2;PMS_P1;PMS_P2;Temp;Humidity;BMP_temperature;BMP_pressure;BME280_temperature;BME280_humidity;BME280_pressure;Samples;Min_cycle;Max_cycle;Signal;HPM_P1;HPM_P2
2021/10/18 00:00:07;;;;;;;;;;;20.20;56.70;;;;;;5072563;28;20436;-53
2021/10/18 00:02:34;;;;;;;;;;;20.20;56.80;;;;;;5072766;28;20334;-52
2021/10/18 00:05:01;;;;;;;;;;;20.20;56.80;;;;;;5073605;28;19925;-57
2021/10/18 00:07:28;;;;;;;;;;;20.20;56.80;;;;;;5073867;28;20338;-55
2021/10/18 00:09:55;;;;;;;;;;;20.20;56.80;;;;;;5073807;28;19964;-56
2021/10/18 00:12:22;;;;;;;;;;;20.20;56.80;;;;;;5072492;28;19924;-56
2021/10/18 00:14:49;;;;;;;;;;;20.20;56.70;;;;;;5072418;28;20365;-53
2021/10/18 00:17:16;;;;;;;;;;;20.20;56.70;;;;;;5073261;28;19932;-52
2021/10/18 00:19:43;;;;;;;;;;;20.20;56.70;;;;;;5070632;28;20307;-55
2021/10/18 00:22:10;;;;;;;;;;;20.20;56.70;;;;;;5055943;28;20282;-54
2021/10/18 00:24:37;;;;;;;;;;;20.20;56.70;;;;;;5073324;28;19954;-55
2021/10/18 00:27:04;;;;;;;;;;;20.20;56.70;;;;;;5073286;28;20265;-55
2021/10/18 00:29:31;;;;;;;;;;;20.20;56.70;;;;;;5072428;28;20019;-53
2021/10/18 00:31:58;;;;;;;;;;;20.20;56.80;;;;;;5065527;28;19925;-53
2021/10/18 00:34:25;;;;;;;;;;;20.20;56.80;;;;;;5073201;28;19928;-56
2021/10/18 00:36:52;;;;;;;;;;;20.20;56.70;;;;;;5073149;28;20303;-56
2021/10/18 00:39:19;;;;;;;;;;;20.20;56.70;;;;;;5072968;28;19959;-55
2021/10/18 00:41:46;;;;;;;;;;;20.20;56.70;;;;;;5073069;28;19978;-54
2021/10/18 00:44:13;;;;;;;;;;;20.20;56.70;;;;;;5054444;28;19982;-54
2021/10/18 00:46:42;;;;;;;;;;;20.20;56.70;;;;;;5072142;28;19976;-55
2021/10/18 00:49:09;;;;;;;;;;;20.20;56.70;;;;;;5072911;28;20434;-55
2021/10/18 00:51:36;;;;;;;;;;;20.20;56.70;;;;;;5088701;28;19924;-55
2021/10/18 00:54:04;;;;;;;;;;;20.20;56.70;;;;;;5072715;28;20031;-51
2021/10/18 00:56:31;;;;;;;;;;;20.20;56.70;;;;;;5066791;28;19966;-57
2021/10/18 00:58:59;;;;;;;;;;;20.20;56.70;;;;;;5071846;28;19924;-54
2021/10/18 01:01:26;;;;;;;;;;;20.20;56.70;;;;;;5071520;28;19938;-54
2021/10/18 01:03:55;;;;;;;;;;;20.20;56.70;;;;;;5071481;28;19955;-53
2021/10/18 01:06:22;;;;;;;;;;;20.20;56.70;;;;;;5072708;28;19987;-56
2021/10/18 01:08:49;;;;;;;;;;;20.10;56.70;;;;;;5072558;28;19924;-54
2021/10/18 01:11:16;;;;;;;;;;;20.20;56.70;;;;;;5053723;28;19924;-55
2021/10/18 01:13:43;;;;;;;;;;;20.20;56.70;;;;;;5071771;28;19925;-53
2021/10/18 01:16:10;;;;;;;;;;;20.20;56.70;;;;;;5088216;28;20395;-54
2021/10/18 01:18:37;;;;;;;;;;;20.20;56.70;;;;;;5055540;28;20396;-55
2021/10/18 01:21:04;;;;;;;;;;;20.20;56.70;;;;;;5071317;28;19974;-53
2021/10/18 01:23:31;;;;;;;;;;;20.10;56.60;;;;;;5041731;28;20003;-53
2021/10/18 01:25:58;;;;;;;;;;;20.20;56.70;;;;;;5071829;28;19979;-53
2021/10/18 01:28:25;;;;;;;;;;;20.10;56.60;;;;;;5072408;28;19956;-51
2021/10/18 01:30:52;;;;;;;;;;;20.20;56.70;;;;;;5053377;28;19924;-52
2021/10/18 01:33:19;;;;;;;;;;;20.10;56.60;;;;;;5072229;28;19925;-52
2021/10/18 01:35:47;;;;;;;;;;;20.20;56.70;;;;;;5071060;28;19975;-52
2021/10/18 01:38:14;;;;;;;;;;;20.20;56.70;;;;;;5071090;28;19925;-56
2021/10/18 01:40:41;;;;;;;;;;;20.20;56.70;;;;;;5070858;28;19928;-54
2021/10/18 01:43:08;;;;;;;;;;;20.20;56.70;;;;;;5072046;28;19924;-55
2021/10/18 01:45:35;;;;;;;;;;;20.20;56.70;;;;;;5072754;28;20291;-55
2021/10/18 01:48:02;;;;;;;;;;;20.20;56.70;;;;;;5072266;28;20355;-53
2021/10/18 01:50:29;;;;;;;;;;;20.20;56.70;;;;;;5072137;28;19971;-53
2021/10/18 01:52:57;;;;;;;;;;;20.20;56.70;;;;;;5071071;28;19928;-54
2021/10/18 01:55:23;;;;;;;;;;;20.10;56.60;;;;;;5071566;28;20304;-53
2021/10/18 01:57:51;;;;;;;;;;;20.20;56.70;;;;;;5070846;28;20011;-53
2021/10/18 02:00:18;;;;;;;;;;;20.20;56.70;;;;;;5070409;28;19956;-55
2021/10/18 02:02:46;;;;;;;;;;;20.20;56.70;;;;;;5070932;28;19968;-53
2021/10/18 02:05:14;;;;;;;;;;;20.20;56.70;;;;;;5071708;28;19991;-56
2021/10/18 02:07:42;;;;;;;;;;;20.10;56.60;;;;;;5071833;28;20026;-55
2021/10/18 02:10:10;;;;;;;;;;;20.10;56.60;;;;;;5071069;28;19990;-55
2021/10/18 02:12:37;;;;;;;;;;;20.20;56.70;;;;;;5071242;28;19929;-56
2021/10/18 02:15:05;;;;;;;;;;;20.20;56.70;;;;;;5072249;28;19928;-56
2021/10/18 02:17:32;;;;;;;;;;;20.20;56.70;;;;;;5070153;28;19924;-53
2021/10/18 02:19:59;;;;;;;;;;;20.20;56.70;;;;;;5071794;28;19925;-54
2021/10/18 02:22:26;;;;;;;;;;;20.20;56.70;;;;;;5072215;28;19932;-51
2021/10/18 02:24:53;;;;;;;;;;;20.20;56.60;;;;;;5075718;28;19962;-54
2021/10/18 02:27:20;;;;;;;;;;;20.20;56.70;;;;;;5075299;28;20440;-51
2021/10/18 02:29:47;;;;;;;;;;;20.20;56.70;;;;;;5075610;28;20011;-51
2021/10/18 02:32:14;;;;;;;;;;;20.20;56.60;;;;;;5075413;28;19966;-52
2021/10/18 02:34:41;;;;;;;;;;;20.20;56.60;;;;;;5074372;28;19928;-53
2021/10/18 02:37:08;;;;;;;;;;;20.20;56.60;;;;;;5075782;28;19978;-53
2021/10/18 02:39:34;;;;;;;;;;;20.20;56.60;;;;;;5075335;28;19931;-52
2021/10/18 02:42:02;;;;;;;;;;;20.20;56.60;;;;;;5089962;28;19970;-53
2021/10/18 02:44:28;;;;;;;;;;;20.20;56.60;;;;;;5075111;28;20367;-54
2021/10/18 02:46:55;;;;;;;;;;;20.20;56.60;;;;;;5074016;28;19931;-52
2021/10/18 02:49:24;;;;;;;;;;;20.20;56.60;;;;;;5074342;28;19947;-54
2021/10/18 02:51:50;;;;;;;;;;;20.20;56.60;;;;;;5075496;28;19924;-53
2021/10/18 02:54:17;;;;;;;;;;;20.20;56.60;;;;;;5074550;28;19956;-52
2021/10/18 02:56:44;;;;;;;;;;;20.10;56.50;;;;;;5074980;28;19928;-50
2021/10/18 02:59:11;;;;;;;;;;;20.20;56.60;;;;;;5075127;28;20295;-52
2021/10/18 03:01:38;;;;;;;;;;;20.20;56.60;;;;;;5075044;28;19968;-52
2021/10/18 03:04:05;;;;;;;;;;;20.20;56.60;;;;;;5074897;28;20564;-50
2021/10/18 03:06:32;;;;;;;;;;;20.20;56.60;;;;;;5075434;28;20344;-52
2021/10/18 03:08:59;;;;;;;;;;;20.20;56.60;;;;;;5074549;28;20034;-53
2021/10/18 03:11:26;;;;;;;;;;;20.20;56.60;;;;;;5075103;28;19924;-52
2021/10/18 03:13:54;;;;;;;;;;;20.20;56.60;;;;;;5074781;28;19931;-51
2021/10/18 03:16:21;;;;;;;;;;;20.20;56.60;;;;;;5074331;28;19924;-49
2021/10/18 03:18:48;;;;;;;;;;;20.20;56.60;;;;;;5074519;28;19932;-52
2021/10/18 03:21:15;;;;;;;;;;;20.20;56.60;;;;;;5073369;28;20381;-54
2021/10/18 03:23:42;;;;;;;;;;;20.20;56.60;;;;;;5088906;28;19933;-55
2021/10/18 03:26:09;;;;;;;;;;;20.20;56.50;;;;;;5073390;28;20001;-56
2021/10/18 03:28:36;;;;;;;;;;;20.20;56.60;;;;;;5089119;28;20034;-53
2021/10/18 03:31:03;;;;;;;;;;;20.20;56.60;;;;;;5074665;28;20422;-52
2021/10/18 03:33:34;;;;;;;;;;;20.20;56.70;;;;;;5073347;28;19967;-53
2021/10/18 03:36:02;;;;;;;;;;;20.20;56.60;;;;;;5074686;28;19924;-55
2021/10/18 03:38:30;;;;;;;;;;;20.20;56.60;;;;;;5074317;28;19924;-53
2021/10/18 03:40:57;;;;;;;;;;;20.20;56.60;;;;;;5073139;28;19924;-57
2021/10/18 03:43:24;;;;;;;;;;;20.20;56.60;;;;;;5073044;28;19934;-55
2021/10/18 03:45:51;;;;;;;;;;;20.10;56.50;;;;;;5056282;28;20579;-53
2021/10/18 03:48:20;;;;;;;;;;;20.20;56.50;;;;;;5072863;28;19925;-52
2021/10/18 03:50:49;;;;;;;;;;;20.20;56.50;;;;;;5073202;28;20355;-52
2021/10/18 03:53:16;;;;;;;;;;;20.20;56.50;;;;;;5072711;28;20408;-49
2021/10/18 03:55:43;;;;;;;;;;;20.20;56.50;;;;;;5056238;28;20377;-52
2021/10/18 03:58:10;;;;;;;;;;;20.20;56.50;;;;;;5073691;28;19931;-53
2021/10/18 04:00:37;;;;;;;;;;;20.20;56.50;;;;;;5072983;28;19982;-53
2021/10/18 04:03:05;;;;;;;;;;;20.20;56.60;;;;;;5073146;28;19974;-52
2021/10/18 04:05:31;;;;;;;;;;;20.20;56.50;;;;;;5073931;28;19931;-51
2021/10/18 04:07:58;;;;;;;;;;;20.20;56.50;;;;;;5073774;28;19947;-55
2021/10/18 04:10:25;;;;;;;;;;;20.20;56.50;;;;;;5073584;28;19931;-51
2021/10/18 04:12:52;;;;;;;;;;;20.20;57.10;;;;;;5073506;28;20335;-53
2021/10/18 04:15:20;;;;;;;;;;;20.20;56.50;;;;;;5072551;28;19987;-54
2021/10/18 04:17:47;;;;;;;;;;;20.20;56.50;;;;;;5073272;28;20447;-54
2021/10/18 04:20:14;;;;;;;;;;;20.20;56.50;;;;;;5073676;28;20019;-51
2021/10/18 04:22:45;;;;;;;;;;;20.20;56.50;;;;;;5072349;28;19935;-52
2021/10/18 04:25:13;;;;;;;;;;;20.20;56.50;;;;;;5056306;28;19924;-53
2021/10/18 04:27:40;;;;;;;;;;;20.20;56.50;;;;;;5073174;28;19934;-51
2021/10/18 04:30:08;;;;;;;;;;;20.20;56.50;;;;;;5072658;28;20015;-54
2021/10/18 04:32:35;;;;;;;;;;;20.20;56.50;;;;;;5073037;28;19932;-52
2021/10/18 04:35:02;;;;;;;;;;;20.20;56.50;;;;;;5072897;28;20383;-55
2021/10/18 04:37:29;;;;;;;;;;;20.20;56.50;;;;;;5071819;28;19986;-51
2021/10/18 04:39:56;;;;;;;;;;;20.20;57.10;;;;;;5072932;28;19928;-53
2021/10/18 04:42:23;;;;;;;;;;;20.20;56.50;;;;;;5073084;28;20327;-50
2021/10/18 04:44:50;;;;;;;;;;;20.20;56.50;;;;;;5071334;28;19931;-53
2021/10/18 04:47:17;;;;;;;;;;;20.10;56.40;;;;;;5071185;28;19925;-55
2021/10/18 04:49:44;;;;;;;;;;;20.20;56.50;;;;;;5072021;28;20019;-54
2021/10/18 04:52:10;;;;;;;;;;;20.20;56.50;;;;;;5055465;28;19994;-53
2021/10/18 04:54:37;;;;;;;;;;;20.20;56.50;;;;;;5071714;28;19951;-54
2021/10/18 04:57:04;;;;;;;;;;;20.20;56.50;;;;;;5071765;28;20288;-53
2021/10/18 04:59:31;;;;;;;;;;;20.20;56.50;;;;;;5088101;28;20295;-53
2021/10/18 05:01:58;;;;;;;;;;;20.20;56.40;;;;;;5072664;28;20480;-52
2021/10/18 05:04:25;;;;;;;;;;;20.20;56.50;;;;;;5072761;28;19966;-56
2021/10/18 05:06:52;;;;;;;;;;;20.20;56.50;;;;;;5072668;28;20331;-55
2021/10/18 05:09:19;;;;;;;;;;;20.20;56.50;;;;;;5071265;28;19925;-54
2021/10/18 05:11:46;;;;;;;;;;;20.20;56.50;;;;;;5072088;28;19925;-54
2021/10/18 05:14:13;;;;;;;;;;;20.20;56.50;;;;;;5072147;28;19999;-52
2021/10/18 05:16:40;;;;;;;;;;;20.20;56.50;;;;;;5070975;28;20285;-54
2021/10/18 05:19:07;;;;;;;;;;;20.20;56.50;;;;;;5054816;28;19924;-56
2021/10/18 05:21:34;;;;;;;;;;;20.20;56.50;;;;;;5072440;28;20016;-51
2021/10/18 05:24:01;;;;;;;;;;;20.20;56.50;;;;;;5064561;28;19924;-53
2021/10/18 05:26:28;;;;;;;;;;;20.20;56.60;;;;;;5072080;28;19968;-57
2021/10/18 05:28:55;;;;;;;;;;;20.20;56.50;;;;;;5071043;28;20338;-55
2021/10/18 05:31:22;;;;;;;;;;;20.20;56.50;;;;;;5071236;28;20571;-52
2021/10/18 05:33:49;;;;;;;;;;;20.20;56.50;;;;;;5072305;28;20012;-54
2021/10/18 05:36:16;;;;;;;;;;;20.20;56.50;;;;;;5071129;28;19942;-54
2021/10/18 05:38:43;;;;;;;;;;;20.20;56.50;;;;;;5086445;28;20007;-50
2021/10/18 05:41:10;;;;;;;;;;;20.20;56.50;;;;;;5071681;28;19955;-55
2021/10/18 05:43:37;;;;;;;;;;;20.20;56.50;;;;;;5086442;28;19951;-53
2021/10/18 05:46:04;;;;;;;;;;;20.20;56.50;;;;;;5072584;28;19989;-53
2021/10/18 05:48:32;;;;;;;;;;;20.20;56.40;;;;;;5071789;28;19960;-53
2021/10/18 05:50:59;;;;;;;;;;;20.20;56.50;;;;;;5092183;28;20277;-53
2021/10/18 05:53:27;;;;;;;;;;;20.20;56.40;;;;;;5074554;28;20334;-55
2021/10/18 05:55:54;;;;;;;;;;;20.20;56.40;;;;;;5053651;28;19928;-53
2021/10/18 05:58:21;;;;;;;;;;;20.20;56.40;;;;;;5071956;28;19981;-56
2021/10/18 06:00:49;;;;;;;;;;;20.20;56.50;;;;;;5072334;28;20549;-50
2021/10/18 06:03:16;;;;;;;;;;;20.20;56.40;;;;;;5070754;28;19924;-53
2021/10/18 06:05:44;;;;;;;;;;;20.20;56.40;;;;;;5071250;28;19978;-56
2021/10/18 06:08:31;;;;;;;;;;;20.20;56.40;;;;;;5071708;28;19952;-57
2021/10/18 06:10:58;;;;;;;;;;;20.20;56.40;;;;;;5087274;28;19929;-52
2021/10/18 06:13:25;;;;;;;;;;;20.20;56.40;;;;;;5054201;28;19967;-57
2021/10/18 06:15:54;;;;;;;;;;;20.20;56.40;;;;;;5088041;28;19932;-54
2021/10/18 06:18:21;;;;;;;;;;;20.20;56.40;;;;;;5071871;28;19924;-55
2021/10/18 06:20:49;;;;;;;;;;;20.20;56.40;;;;;;5072181;28;19986;-56
2021/10/18 06:23:17;;;;;;;;;;;20.20;56.40;;;;;;5038386;28;19931;-53
2021/10/18 06:25:44;;;;;;;;;;;20.20;56.40;;;;;;5071781;28;19974;-53
2021/10/18 06:28:12;;;;;;;;;;;20.20;56.50;;;;;;5070470;28;19975;-54
2021/10/18 06:30:40;;;;;;;;;;;20.20;57.10;;;;;;5071331;28;19972;-57
2021/10/18 06:33:08;;;;;;;;;;;20.20;56.40;;;;;;5071251;28;19925;-53
2021/10/18 06:35:36;;;;;;;;;;;20.20;56.40;;;;;;5071391;28;19925;-50
2021/10/18 06:38:11;;;;;;;;;;;20.20;56.40;;;;;;5070335;28;20338;-55
2021/10/18 06:40:38;;;;;;;;;;;20.20;56.40;;;;;;5071558;28;20356;-51
2021/10/18 06:43:05;;;;;;;;;;;20.20;56.40;;;;;;5071405;28;20003;-52
2021/10/18 06:45:32;;;;;;;;;;;20.20;56.40;;;;;;5071406;28;19932;-53
2021/10/18 06:48:04;;;;;;;;;;;20.20;56.40;;;;;;5070942;28;19979;-52
2021/10/18 06:50:32;;;;;;;;;;;20.20;56.40;;;;;;5070174;28;19967;-55
2021/10/18 06:53:00;;;;;;;;;;;20.20;56.40;;;;;;5070046;28;19924;-57
2021/10/18 06:55:27;;;;;;;;;;;20.20;56.40;;;;;;5069910;28;19956;-51
2021/10/18 06:57:56;;;;;;;;;;;20.20;56.40;;;;;;5070098;28;19928;-52
2021/10/18 07:00:23;;;;;;;;;;;20.20;56.30;;;;;;5069945;28;20407;-54
2021/10/18 07:02:50;;;;;;;;;;;20.20;56.30;;;;;;5071860;28;19974;-55
2021/10/18 07:05:17;;;;;;;;;;;20.20;56.30;;;;;;5069827;28;19931;-56
2021/10/18 07:07:44;;;;;;;;;;;20.20;56.20;;;;;;5069844;28;20003;-51
2021/10/18 07:10:11;;;;;;;;;;;20.20;56.20;;;;;;5074127;28;19947;-55
2021/10/18 07:12:38;;;;;;;;;;;20.20;56.20;;;;;;5074929;28;20363;-51
2021/10/18 07:15:06;;;;;;;;;;;20.20;56.20;;;;;;5073690;28;19947;-52
2021/10/18 07:17:35;;;;;;;;;;;20.20;56.20;;;;;;5074606;28;20007;-52
2021/10/18 07:20:03;;;;;;;;;;;20.30;56.30;;;;;;5074469;28;19963;-52
2021/10/18 07:22:36;;;;;;;;;;;20.20;56.20;;;;;;5073013;28;20015;-54
2021/10/18 07:25:04;;;;;;;;;;;20.30;56.20;;;;;;5074693;28;19924;-51
2021/10/18 07:27:31;;;;;;;;;;;20.30;56.20;;;;;;5073213;28;19946;-56
2021/10/18 07:29:58;;;;;;;;;;;20.30;56.20;;;;;;5090098;28;20463;-53
2021/10/18 07:32:25;;;;;;;;;;;20.30;56.20;;;;;;5074086;28;19929;-54
2021/10/18 07:34:52;;;;;;;;;;;20.30;56.10;;;;;;5074188;28;19924;-53
2021/10/18 07:37:26;;;;;;;;;;;20.30;56.10;;;;;;5074162;28;19925;-53
2021/10/18 07:39:52;;;;;;;;;;;20.30;56.10;;;;;;5074245;28;19999;-55
2021/10/18 07:42:20;;;;;;;;;;;20.30;56.10;;;;;;5073510;28;20916;-49
2021/10/18 07:44:47;;;;;;;;;;;20.30;56.10;;;;;;5074383;28;19967;-54
2021/10/18 07:47:13;;;;;;;;;;;20.30;56.10;;;;;;5074215;28;20007;-54
2021/10/18 07:49:42;;;;;;;;;;;20.30;56.00;;;;;;5073053;28;20015;-50
2021/10/18 07:52:12;;;;;;;;;;;20.30;56.00;;;;;;5074369;28;20319;-54
2021/10/18 07:54:39;;;;;;;;;;;20.30;56.00;;;;;;5072374;28;20011;-53
2021/10/18 07:57:06;;;;;;;;;;;20.40;56.10;;;;;;5073815;28;19939;-53
2021/10/18 07:59:33;;;;;;;;;;;20.30;56.00;;;;;;5072479;28;19968;-56
2021/10/18 08:02:01;;;;;;;;;;;20.30;56.00;;;;;;5072530;28;19925;-56
2021/10/18 08:04:28;;;;;;;;;;;20.30;56.00;;;;;;5073715;28;20350;-56
2021/10/18 08:06:55;;;;;;;;;;;20.30;56.00;;;;;;5072558;28;20182;-57
2021/10/18 08:09:24;;;;;;;;;;;20.40;56.00;;;;;;5073780;28;19924;-53
2021/10/18 08:11:51;;;;;;;;;;;20.40;56.00;;;;;;5073323;28;19924;-54
2021/10/18 08:14:19;;;;;;;;;;;20.40;56.00;;;;;;5074092;28;19950;-54
2021/10/18 08:16:46;;;;;;;;;;;20.40;55.90;;;;;;5073325;28;20292;-54
2021/10/18 08:19:13;;;;;;;;;;;20.40;55.90;;;;;;5073756;28;19924;-55
2021/10/18 08:21:40;;;;;;;;;;;20.40;55.90;;;;;;5073253;28;19967;-57
2021/10/18 08:24:07;;;;;;;;;;;20.40;55.90;;;;;;5072490;28;19924;-53
2021/10/18 08:26:34;;;;;;;;;;;20.40;55.80;;;;;;5073527;28;19959;-55
2021/10/18 08:29:01;;;;;;;;;;;20.40;55.80;;;;;;5073530;28;20276;-54
2021/10/18 08:31:28;;;;;;;;;;;20.40;55.70;;;;;;5055680;28;19943;-56
2021/10/18 08:33:55;;;;;;;;;;;20.50;55.80;;;;;;5072108;28;19932;-53
2021/10/18 08:36:22;;;;;;;;;;;20.40;55.70;;;;;;5073220;28;20352;-55
2021/10/18 08:39:57;;;;;;;;;;;20.40;55.70;;;;;;5038123;28;19978;-55
2021/10/18 08:41:57;;;;;;;;;;;20.40;55.70;;;;;;5057041;28;19924;-55
2021/10/18 08:44:24;;;;;;;;;;;20.50;55.80;;;;;;5073617;28;19929;-57
2021/10/18 08:46:52;;;;;;;;;;;20.50;55.80;;;;;;5072678;28;19928;-55
2021/10/18 08:49:21;;;;;;;;;;;20.50;55.80;;;;;;5073284;28;19989;-53
2021/10/18 08:51:48;;;;;;;;;;;20.50;55.80;;;;;;5073323;28;19974;-55
2021/10/18 08:54:16;;;;;;;;;;;20.50;55.80;;;;;;5071600;28;20376;-55
2021/10/18 08:56:53;;;;;;;;;;;20.50;55.70;;;;;;5071929;28;19925;-55
2021/10/18 08:59:21;;;;;;;;;;;20.50;55.70;;;;;;5072805;28;19925;-56
2021/10/18 09:01:50;;;;;;;;;;;20.50;55.70;;;;;;5072545;28;19934;-54
2021/10/18 09:04:25;;;;;;;;;;;20.50;55.70;;;;;;5072742;28;19971;-54
2021/10/18 09:07:12;;;;;;;;;;;20.50;55.70;;;;;;5071331;28;19924;-56
2021/10/18 09:09:49;;;;;;;;;;;20.50;55.70;;;;;;5072303;28;19954;-52
2021/10/18 09:12:24;;;;;;;;;;;20.50;55.70;;;;;;5072359;28;20441;-55
2021/10/18 09:14:51;;;;;;;;;;;20.50;55.60;;;;;;5072242;28;19925;-50
2021/10/18 09:17:31;;;;;;;;;;;20.50;55.60;;;;;;5072042;28;19974;-53
2021/10/18 09:20:17;;;;;;;;;;;20.60;55.60;;;;;;5071490;28;19937;-52
2021/10/18 09:22:44;;;;;;;;;;;20.60;55.60;;;;;;5072252;28;19924;-53
2021/10/18 09:25:11;;;;;;;;;;;20.60;55.50;;;;;;5072095;28;20355;-55
2021/10/18 09:27:38;;;;;;;;;;;20.60;55.50;;;;;;5072215;28;19931;-54
2021/10/18 09:30:07;;;;;;;;;;;20.60;55.40;;;;;;5071689;28;19925;-51
2021/10/18 09:32:34;;;;;;;;;;;20.60;55.40;;;;;;5071677;28;19971;-57
2021/10/18 09:35:08;;;;;;;;;;;20.60;55.40;;;;;;5071463;28;20266;-56
2021/10/18 09:37:39;;;;;;;;;;;20.60;55.30;;;;;;5071983;28;19959;-51
2021/10/18 09:40:06;;;;;;;;;;;20.70;55.40;;;;;;5069737;28;19928;-55
2021/10/18 09:42:33;;;;;;;;;;;20.70;55.30;;;;;;5070724;28;19924;-54
2021/10/18 10:52:34;;;;;;;;;;;21.00;54.70;;;;;;5073986;28;20383;-55
2021/10/18 10:55:33;;;;;;;;;;;20.90;54.60;;;;;;5073719;28;19986;-54
2021/10/18 10:58:03;;;;;;;;;;;21.00;54.70;;;;;;5014168;28;19947;-54
2021/10/18 11:00:32;;;;;;;;;;;21.00;54.70;;;;;;5012990;28;19929;-53
2021/10/18 11:03:18;;;;;;;;;;;20.90;54.60;;;;;;5012968;28;19929;-54
2021/10/18 11:06:14;;;;;;;;;;;21.00;54.70;;;;;;5012761;28;20381;-55
2021/10/18 11:08:41;;;;;;;;;;;21.00;54.60;;;;;;5009779;28;20020;-55
2021/10/18 11:11:21;;;;;;;;;;;21.00;54.60;;;;;;5012778;28;19964;-56
2021/10/18 11:13:54;;;;;;;;;;;21.00;54.60;;;;;;5012939;28;20016;-54
2021/10/18 11:16:28;;;;;;;;;;;21.00;54.60;;;;;;4996416;28;20454;-55
2021/10/18 11:18:57;;;;;;;;;;;21.00;54.60;;;;;;5012895;28;20353;-52
2021/10/18 11:21:27;;;;;;;;;;;21.00;54.60;;;;;;5012325;28;19960;-51
2021/10/18 11:23:56;;;;;;;;;;;21.00;54.60;;;;;;5012431;28;19989;-53
2021/10/18 11:26:24;;;;;;;;;;;21.00;54.60;;;;;;5012346;28;19953;-54
2021/10/18 11:29:10;;;;;;;;;;;21.00;54.60;;;;;;5011742;28;19969;-54
2021/10/18 11:31:37;;;;;;;;;;;21.00;54.60;;;;;;5012493;28;20012;-51
2021/10/18 11:34:09;;;;;;;;;;;21.00;54.60;;;;;;5053722;28;19924;-54
2021/10/18 11:36:37;;;;;;;;;;;21.00;54.60;;;;;;5074593;28;20027;-55
2021/10/18 11:39:06;;;;;;;;;;;21.00;54.60;;;;;;5073024;28;19931;-55
2021/10/18 11:41:53;;;;;;;;;;;21.00;54.60;;;;;;5074607;28;19995;-56
2021/10/18 11:44:36;;;;;;;;;;;21.00;54.70;;;;;;5063005;28;20357;-53
2021/10/18 11:47:03;;;;;;;;;;;21.00;54.70;;;;;;5072868;28;20463;-53
2021/10/18 11:49:30;;;;;;;;;;;20.90;54.70;;;;;;5074210;28;19932;-54
2021/10/18 11:51:57;;;;;;;;;;;20.90;54.70;;;;;;5072707;28;19971;-55
2021/10/18 11:54:24;;;;;;;;;;;20.90;54.70;;;;;;5054413;28;19970;-54
2021/10/18 11:56:54;;;;;;;;;;;20.90;54.70;;;;;;5072749;28;20007;-53
2021/10/18 11:59:21;;;;;;;;;;;20.90;54.80;;;;;;5073034;28;20000;-54
2021/10/18 12:01:48;;;;;;;;;;;20.90;54.80;;;;;;5068988;28;19924;-52
2021/10/18 12:04:15;;;;;;;;;;;20.90;54.90;;;;;;5073031;28;19939;-52
2021/10/18 12:06:48;;;;;;;;;;;20.90;54.80;;;;;;5074376;28;20088;-54
2021/10/18 12:09:25;;;;;;;;;;;20.80;54.80;;;;;;5073332;28;19928;-55
2021/10/18 12:11:53;;;;;;;;;;;20.80;54.90;;;;;;5072862;28;19977;-52
2021/10/18 12:14:20;;;;;;;;;;;20.80;54.90;;;;;;5072397;28;20023;-55
2021/10/18 12:16:47;;;;;;;;;;;20.80;55.00;;;;;;5073531;28;19925;-53
2021/10/18 12:19:14;;;;;;;;;;;20.80;55.10;;;;;;5073194;28;19925;-56
2021/10/18 12:21:41;;;;;;;;;;;20.80;55.10;;;;;;5073756;28;20035;-54
2021/10/18 12:24:15;;;;;;;;;;;20.80;55.20;;;;;;5072284;28;19924;-53
2021/10/18 12:26:43;;;;;;;;;;;20.70;55.10;;;;;;5072016;28;19968;-54
2021/10/18 12:29:11;;;;;;;;;;;20.70;55.20;;;;;;5073126;28;20019;-56
2021/10/18 12:31:40;;;;;;;;;;;20.70;55.30;;;;;;5073141;28;19924;-55
2021/10/18 12:34:07;;;;;;;;;;;20.70;55.30;;;;;;5072231;28;20015;-54
2021/10/18 12:36:52;;;;;;;;;;;20.70;55.30;;;;;;5072395;28;20000;-53
2021/10/18 12:39:38;;;;;;;;;;;20.70;55.30;;;;;;5055922;28;19985;-55
2021/10/18 12:42:06;;;;;;;;;;;20.70;55.40;;;;;;5072060;28;19931;-51
2021/10/18 12:44:56;;;;;;;;;;;20.70;55.30;;;;;;5073228;28;19928;-51
2021/10/18 12:47:24;;;;;;;;;;;20.70;55.40;;;;;;5047480;28;19968;-55
2021/10/18 12:50:02;;;;;;;;;;;20.70;55.40;;;;;;5073189;28;19971;-55
2021/10/18 12:52:31;;;;;;;;;;;20.70;55.40;;;;;;5072765;28;20351;-57
2021/10/18 12:54:58;;;;;;;;;;;20.70;55.40;;;;;;5054310;28;19967;-51
2021/10/18 12:57:26;;;;;;;;;;;20.70;55.50;;;;;;5072711;28;19932;-55
2021/10/18 12:59:59;;;;;;;;;;;20.70;55.50;;;;;;5073009;28;19931;-53
2021/10/18 13:02:29;;;;;;;;;;;20.70;55.50;;;;;;5070714;28;20216;-56
2021/10/18 13:05:05;;;;;;;;;;;20.70;55.50;;;;;;5071565;28;20436;-53
2021/10/18 13:07:32;;;;;;;;;;;20.70;56.10;;;;;;5071428;28;19970;-54
2021/10/18 13:09:59;;;;;;;;;;;20.70;55.50;;;;;;5072722;28;19924;-53
2021/10/18 13:12:27;;;;;;;;;;;20.70;55.50;;;;;;5071575;28;19964;-54
2021/10/18 13:14:54;;;;;;;;;;;20.70;55.60;;;;;;5072287;28;20007;-53
2021/10/18 13:17:22;;;;;;;;;;;20.70;55.60;;;;;;5072384;28;19976;-54
2021/10/18 13:19:50;;;;;;;;;;;20.70;55.60;;;;;;5071424;28;19950;-54
2021/10/18 13:22:18;;;;;;;;;;;20.70;55.60;;;;;;5072337;28;20019;-51
2021/10/18 13:24:44;;;;;;;;;;;20.70;55.60;;;;;;5072615;28;20008;-54
2021/10/18 13:27:11;;;;;;;;;;;20.70;55.60;;;;;;5071262;28;20350;-55
2021/10/18 13:29:39;;;;;;;;;;;20.70;55.60;;;;;;5072472;28;20266;-54
2021/10/18 13:32:06;;;;;;;;;;;20.70;55.60;;;;;;5071219;28;19924;-51
2021/10/18 13:34:33;;;;;;;;;;;20.70;55.60;;;;;;5071512;28;19925;-53
2021/10/18 13:37:01;;;;;;;;;;;20.70;55.70;;;;;;5071082;28;19925;-55
2021/10/18 13:39:28;;;;;;;;;;;20.70;55.70;;;;;;5072004;28;19955;-53
2021/10/18 13:41:55;;;;;;;;;;;20.70;55.70;;;;;;5072234;28;20283;-53
2021/10/18 13:44:22;;;;;;;;;;;20.70;55.70;;;;;;5072118;28;20016;-56
2021/10/18 13:46:49;;;;;;;;;;;20.70;55.70;;;;;;5053564;28;19936;-55
2021/10/18 13:49:16;;;;;;;;;;;20.70;55.70;;;;;;5072377;28;19972;-53
2021/10/18 13:51:43;;;;;;;;;;;20.70;55.70;;;;;;5072532;28;19925;-51
2021/10/18 13:54:10;;;;;;;;;;;20.70;55.70;;;;;;5071965;28;19929;-54
2021/10/18 13:56:38;;;;;;;;;;;20.70;55.70;;;;;;5070603;28;19967;-51
2021/10/18 13:59:05;;;;;;;;;;;20.70;55.70;;;;;;5070806;28;19986;-51
2021/10/18 14:01:32;;;;;;;;;;;20.70;55.70;;;;;;5072168;28;19928;-53
2021/10/18 14:04:00;;;;;;;;;;;20.70;55.70;;;;;;5071857;28;19932;-52
2021/10/18 14:06:27;;;;;;;;;;;20.70;55.70;;;;;;5085115;28;20367;-55
2021/10/18 14:08:54;;;;;;;;;;;20.70;55.70;;;;;;5070720;28;19964;-51
2021/10/18 14:11:21;;;;;;;;;;;20.70;55.70;;;;;;5071974;28;19924;-52
2021/10/18 14:13:48;;;;;;;;;;;20.70;55.70;;;;;;5071618;28;19963;-55
2021/10/18 14:16:15;;;;;;;;;;;20.70;55.70;;;;;;5070968;28;19960;-51
2021/10/18 14:18:43;;;;;;;;;;;20.70;55.70;;;;;;5057320;28;19924;-54
2021/10/18 14:21:11;;;;;;;;;;;20.70;55.80;;;;;;5074890;28;19956;-57
2021/10/18 14:23:38;;;;;;;;;;;20.70;55.80;;;;;;5072947;28;20354;-55
2021/10/18 14:26:05;;;;;;;;;;;20.70;55.80;;;;;;5075814;28;19924;-55
2021/10/18 14:28:32;;;;;;;;;;;20.70;55.80;;;;;;5075510;28;19970;-52
2021/10/18 14:30:59;;;;;;;;;;;20.70;55.80;;;;;;5074821;28;19968;-52
2021/10/18 14:33:26;;;;;;;;;;;20.70;55.80;;;;;;5075719;28;19935;-53
2021/10/18 14:35:54;;;;;;;;;;;20.70;55.80;;;;;;5074588;28;19964;-53
2021/10/18 14:38:21;;;;;;;;;;;20.70;55.80;;;;;;5075000;28;19974;-52
2021/10/18 14:40:49;;;;;;;;;;;20.70;55.80;;;;;;5074301;28;19931;-54
2021/10/18 14:43:16;;;;;;;;;;;20.70;55.80;;;;;;5075460;28;19976;-54
2021/10/18 14:45:43;;;;;;;;;;;20.70;55.80;;;;;;5075861;28;19972;-55
2021/10/18 14:48:10;;;;;;;;;;;20.70;55.80;;;;;;5073737;28;19928;-57
2021/10/18 14:50:37;;;;;;;;;;;20.70;55.80;;;;;;5073858;28;19928;-53
2021/10/18 14:53:08;;;;;;;;;;;20.70;55.80;;;;;;5074226;28;20027;-52
2021/10/18 14:55:55;;;;;;;;;;;20.70;55.80;;;;;;5074858;28;19928;-52
2021/10/18 14:58:22;;;;;;;;;;;20.70;55.80;;;;;;5075069;28;20327;-52
2021/10/18 15:00:50;;;;;;;;;;;20.70;55.80;;;;;;5073990;28;20360;-52
2021/10/18 15:03:17;;;;;;;;;;;20.60;55.80;;;;;;5074833;28;19936;-57
2021/10/18 15:05:44;;;;;;;;;;;20.60;55.80;;;;;;5074872;28;20013;-56
2021/10/18 15:08:11;;;;;;;;;;;20.60;55.80;;;;;;5073466;28;20015;-55
2021/10/18 15:10:39;;;;;;;;;;;20.60;55.80;;;;;;5074690;28;19970;-53
2021/10/18 15:13:06;;;;;;;;;;;20.60;55.80;;;;;;5073603;28;19974;-54
2021/10/18 15:15:34;;;;;;;;;;;20.60;56.40;;;;;;5074419;28;19930;-55
2021/10/18 15:18:01;;;;;;;;;;;20.60;55.90;;;;;;5062622;28;19928;-55
2021/10/18 15:20:28;;;;;;;;;;;20.60;55.90;;;;;;5073495;28;19931;-53
2021/10/18 15:22:55;;;;;;;;;;;20.60;55.90;;;;;;5074453;28;20333;-54
2021/10/18 15:25:23;;;;;;;;;;;20.60;55.90;;;;;;5088605;28;19924;-50
2021/10/18 15:27:49;;;;;;;;;;;20.60;55.90;;;;;;5074502;28;19924;-53
2021/10/18 15:30:16;;;;;;;;;;;20.60;55.90;;;;;;5072268;28;20403;-54